Time;durP1;ratioP1;P1;durP2;ratioP2;P2;SDS_P1;SDS_P2;PMS_P1;PMS_P2;Temp;Humidity;BMP_temperature;BMP_pressure;BME280_temperature;BME280_humidity;BME280_pressure;Samples;Min_cycle;Max_cycle;Signal;HPM_P1;HPM_P2
2021/10/22 00:01:41;;;;;;;2.30;0.30;;;;;;;8.56;64.99;99538.92;113856;1196;25271;-78
2021/10/22 00:04:09;;;;;;;6.00;0.40;;;;;;;8.51;65.19;99542.39;113841;1190;24088;-78
2021/10/22 00:06:37;;;;;;;3.20;0.40;;;;;;;8.47;65.29;99545.00;113844;1196;22435;-78
2021/10/22 00:09:05;;;;;;;6.50;0.50;;;;;;;8.44;65.32;99550.82;113816;1196;24175;-78
2021/10/22 00:11:34;;;;;;;6.60;0.30;;;;;;;8.40;65.20;99550.35;113817;1196;22527;-78
2021/10/22 00:14:02;;;;;;;4.20;0.40;;;;;;;8.35;65.51;99560.11;113804;1196;24083;-77
2021/10/22 00:16:30;;;;;;;2.60;0.40;;;;;;;8.33;65.57;99569.19;113795;1196;26916;-77
2021/10/22 00:18:58;;;;;;;6.00;0.50;;;;;;;8.29;65.57;99569.13;113802;1197;22441;-77
2021/10/22 00:21:26;;;;;;;4.80;0.30;;;;;;;8.27;65.59;99574.64;113757;1196;22442;-78
2021/10/22 00:23:55;;;;;;;3.70;0.30;;;;;;;8.25;65.99;99576.66;113749;1196;24191;-78
2021/10/22 00:26:24;;;;;;;5.10;0.40;;;;;;;8.21;65.86;99582.09;113803;1196;22421;-78
2021/10/22 00:28:52;;;;;;;8.50;0.40;;;;;;;8.17;66.17;99585.61;114044;1196;22434;-78
2021/10/22 00:31:20;;;;;;;6.80;0.60;;;;;;;8.15;65.97;99586.30;113809;1196;22441;-78
2021/10/22 00:33:49;;;;;;;5.70;0.40;;;;;;;8.12;66.13;99590.79;113986;1191;24051;-78
2021/10/22 00:36:19;;;;;;;6.50;0.50;;;;;;;8.10;66.14;99592.05;113916;1190;25206;-78
2021/10/22 00:38:47;;;;;;;7.90;0.60;;;;;;;8.07;66.08;99592.27;113837;1190;22436;-77
2021/10/22 00:41:15;;;;;;;5.80;0.50;;;;;;;8.06;65.95;99588.75;113852;1196;22455;-78
2021/10/22 00:43:43;;;;;;;5.10;0.60;;;;;;;8.03;65.95;99592.55;113707;1196;23720;-77
2021/10/22 00:46:12;;;;;;;6.30;0.90;;;;;;;8.02;65.93;99598.68;114047;1196;24337;-78
2021/10/22 00:48:40;;;;;;;9.10;0.50;;;;;;;7.99;65.82;99598.48;113828;1196;22433;-78
2021/10/22 00:51:11;;;;;;;8.60;0.50;;;;;;;7.98;65.57;99601.95;113863;1196;24090;-78
2021/10/22 00:53:41;;;;;;;11.30;0.60;;;;;;;7.97;65.44;99603.35;113790;1196;23072;-79
2021/10/22 00:56:11;;;;;;;6.80;0.50;;;;;;;7.96;65.26;99605.27;113799;1196;22558;-78
2021/10/22 00:58:42;;;;;;;8.60;0.60;;;;;;;7.94;65.12;99607.89;113767;1196;22568;-78
2021/10/22 01:01:10;;;;;;;7.50;0.50;;;;;;;7.93;65.15;99613.46;113904;1196;22551;-78
2021/10/22 01:03:38;;;;;;;6.80;0.40;;;;;;;7.91;64.69;99616.47;113822;1197;24061;-77
2021/10/22 01:06:06;;;;;;;9.50;0.80;;;;;;;7.91;64.60;99615.36;113796;1182;22434;-78
2021/10/22 01:08:35;;;;;;;3.40;0.40;;;;;;;7.88;64.50;99614.18;113796;1196;22437;-78
2021/10/22 01:11:04;;;;;;;5.80;0.70;;;;;;;7.87;64.56;99618.16;113877;1196;22427;-78
2021/10/22 01:13:32;;;;;;;10.90;0.60;;;;;;;7.86;64.44;99629.35;114053;1183;25411;-78
2021/10/22 01:16:01;;;;;;;6.60;0.50;;;;;;;7.85;64.41;99629.98;113800;1196;22472;-78
2021/10/22 01:18:29;;;;;;;15.70;1.00;;;;;;;7.83;64.35;99632.27;113844;1196;22871;-78
2021/10/22 01:20:59;;;;;;;5.70;0.60;;;;;;;7.83;64.25;99636.51;113840;1196;22430;-78
2021/10/22 01:23:27;;;;;;;10.60;0.60;;;;;;;7.83;64.27;99642.72;113911;1196;22618;-78
2021/10/22 01:25:55;;;;;;;3.30;0.40;;;;;;;7.82;64.19;99645.29;113782;1196;22449;-78
2021/10/22 01:28:24;;;;;;;8.00;1.10;;;;;;;7.79;64.26;99649.47;113851;1196;23791;-78
2021/10/22 01:30:53;;;;;;;6.80;0.40;;;;;;;7.77;64.27;99655.95;113950;1196;22412;-78
2021/10/22 01:33:21;;;;;;;6.90;0.50;;;;;;;7.75;64.21;99659.89;113760;1196;23476;-77
2021/10/22 01:35:50;;;;;;;4.80;0.30;;;;;;;7.73;64.17;99659.16;113915;1196;24292;-77
2021/10/22 01:38:20;;;;;;;6.60;0.60;;;;;;;7.73;63.99;99661.63;113887;1196;22539;-78
2021/10/22 01:40:53;;;;;;;6.70;0.40;;;;;;;7.74;63.92;99663.27;113935;1196;25128;-77
2021/10/22 01:43:21;;;;;;;6.90;0.90;;;;;;;7.74;63.64;99664.56;113866;1196;22435;-78
2021/10/22 01:45:50;;;;;;;12.70;0.80;;;;;;;7.76;63.51;99669.56;113977;1196;24223;-78
2021/10/22 01:48:19;;;;;;;4.50;0.40;;;;;;;7.75;63.34;99672.02;113854;1196;24175;-78
2021/10/22 01:50:47;;;;;;;5.70;0.40;;;;;;;7.74;63.21;99672.95;113880;1196;22450;-78
2021/10/22 01:53:17;;;;;;;5.80;0.60;;;;;;;7.72;63.15;99674.16;113809;1196;25083;-77
2021/10/22 01:55:45;;;;;;;9.90;0.50;;;;;;;7.70;63.13;99673.21;113906;1196;22439;-77
2021/10/22 01:58:13;;;;;;;8.20;0.60;;;;;;;7.68;63.00;99677.45;113808;1196;22528;-77
2021/10/22 02:00:42;;;;;;;5.10;0.50;;;;;;;7.65;62.97;99684.17;113779;1196;24296;-78
2021/10/22 02:03:10;;;;;;;9.60;0.90;;;;;;;7.64;63.00;99683.05;113828;1196;24064;-77
2021/10/22 02:05:40;;;;;;;6.90;0.70;;;;;;;7.61;62.87;99687.32;113872;1196;22549;-77
2021/10/22 02:08:09;;;;;;;3.90;0.30;;;;;;;7.60;62.90;99690.84;113876;1196;22420;-78
2021/10/22 02:10:37;;;;;;;5.10;0.50;;;;;;;7.59;62.97;99692.24;113958;1196;22442;-76
2021/10/22 02:13:05;;;;;;;6.20;0.40;;;;;;;7.59;62.99;99693.39;113794;1196;23517;-77
2021/10/22 02:15:33;;;;;;;4.40;0.40;;;;;;;7.58;63.02;99697.55;113838;1196;25266;-77
2021/10/22 02:18:01;;;;;;;9.00;0.90;;;;;;;7.57;62.98;99701.66;113813;1196;22529;-77
2021/10/22 02:20:29;;;;;;;8.90;0.60;;;;;;;7.54;63.02;99700.20;113876;1196;22472;-77
2021/10/22 02:22:57;;;;;;;7.60;0.60;;;;;;;7.52;63.00;99698.13;113830;1196;25833;-78
2021/10/22 02:25:25;;;;;;;3.10;0.40;;;;;;;7.51;63.10;99700.89;113849;1190;22439;-78
2021/10/22 02:27:55;;;;;;;5.80;0.70;;;;;;;7.50;63.06;99703.43;113813;1196;22416;-77
2021/10/22 02:30:23;;;;;;;9.90;0.70;;;;;;;7.48;63.10;99705.83;113810;1196;24156;-77
2021/10/22 02:32:51;;;;;;;8.10;0.60;;;;;;;7.46;63.23;99710.31;113845;1196;25044;-77
2021/10/22 02:35:19;;;;;;;10.40;0.60;;;;;;;7.43;63.20;99709.98;113831;1196;22529;-77
2021/10/22 02:37:46;;;;;;;4.30;0.60;;;;;;;7.40;63.36;99718.75;113865;1196;22432;-78
2021/10/22 02:40:17;;;;;;;8.10;0.70;;;;;;;7.37;63.35;99720.56;113843;1196;25314;-78
2021/10/22 02:42:45;;;;;;;9.90;1.20;;;;;;;7.33;63.32;99716.29;113797;1196;25190;-77
2021/10/22 02:45:14;;;;;;;10.20;0.60;;;;;;;7.31;63.37;99724.41;113929;1196;22455;-77
2021/10/22 02:47:43;;;;;;;4.40;0.40;;;;;;;7.28;63.45;99728.09;113848;1196;22435;-76
2021/10/22 02:50:11;;;;;;;7.10;0.50;;;;;;;7.26;63.50;99729.55;113908;1196;22607;-77
2021/10/22 02:52:39;;;;;;;5.50;0.50;;;;;;;7.22;63.47;99732.44;113849;1196;22481;-77
2021/10/22 02:55:08;;;;;;;5.10;0.60;;;;;;;7.19;63.47;99727.67;113854;1196;25024;-77
2021/10/22 02:57:36;;;;;;;9.50;0.60;;;;;;;7.16;63.56;99734.06;113800;1196;25137;-77
2021/10/22 03:00:07;;;;;;;9.70;1.10;;;;;;;7.14;63.50;99739.55;113809;1196;22528;-78
2021/10/22 03:02:33;;;;;;;;;;;;;;;7.14;63.48;99744.30;113858;1196;22424;-78
2021/10/22 03:05:02;;;;;;;3.70;0.50;;;;;;;7.14;63.47;99748.93;113805;1196;22412;-78
2021/10/22 03:07:30;;;;;;;13.60;1.00;;;;;;;7.12;63.59;99753.29;113813;1196;22480;-77
2021/10/22 03:09:58;;;;;;;11.40;0.60;;;;;;;7.12;63.58;99761.05;113885;1196;22473;-79
2021/10/22 03:12:26;;;;;;;7.80;0.60;;;;;;;7.12;63.65;99761.55;113864;1197;22489;-75
2021/10/22 03:14:53;;;;;;;8.20;0.80;;;;;;;7.11;63.60;99760.41;113829;1196;22446;-75
2021/10/22 03:17:21;;;;;;;5.20;0.50;;;;;;;7.09;63.67;99761.13;113855;1196;22546;-79
2021/10/22 03:19:49;;;;;;;6.10;0.60;;;;;;;7.07;63.64;99764.00;114030;1196;22432;-77
2021/10/22 03:22:18;;;;;;;3.50;0.80;;;;;;;7.04;63.67;99766.83;113935;1196;22439;-75
2021/10/22 03:24:46;;;;;;;6.90;0.50;;;;;;;7.02;63.72;99770.67;113947;1196;23258;-77
2021/10/22 03:27:15;;;;;;;11.30;0.60;;;;;;;7.01;63.69;99770.66;113820;1196;25024;-77
2021/10/22 03:29:44;;;;;;;5.50;0.50;;;;;;;7.01;63.77;99772.04;113894;1196;22435;-76
2021/10/22 03:32:12;;;;;;;6.20;1.20;;;;;;;7.03;63.78;99775.67;113892;1196;27366;-77
2021/10/22 03:34:40;;;;;;;6.10;0.50;;;;;;;7.07;63.82;99780.74;113910;1196;24053;-76
2021/10/22 03:37:09;;;;;;;7.80;0.60;;;;;;;7.11;63.71;99782.87;113785;1196;22458;-77
2021/10/22 03:39:37;;;;;;;10.60;0.90;;;;;;;7.12;63.67;99785.17;113804;1197;25131;-77
2021/10/22 03:42:05;;;;;;;8.90;0.70;;;;;;;7.12;63.61;99785.83;113809;1196;22442;-76
2021/10/22 03:44:33;;;;;;;8.40;0.80;;;;;;;7.11;63.60;99787.15;113910;1196;24046;-76
2021/10/22 03:47:01;;;;;;;4.60;0.50;;;;;;;7.09;63.67;99792.88;113855;1196;24640;-76
2021/10/22 03:49:31;;;;;;;13.40;0.90;;;;;;;7.06;63.59;99792.91;113860;1196;22897;-75
2021/10/22 03:52:00;;;;;;;10.20;1.10;;;;;;;7.04;63.57;99796.73;113856;1196;22550;-77
2021/10/22 03:54:28;;;;;;;5.00;0.50;;;;;;;7.01;63.66;99796.96;113881;1196;25140;-75
2021/10/22 03:56:56;;;;;;;4.20;0.60;;;;;;;6.99;63.60;99794.49;113840;1196;23562;-76
2021/10/22 03:59:24;;;;;;;7.90;1.00;;;;;;;6.98;63.59;99793.35;113887;1196;22434;-76
2021/10/22 04:01:52;;;;;;;7.20;0.90;;;;;;;6.96;63.61;99800.35;113859;1196;24598;-78
2021/10/22 04:04:27;;;;;;;7.70;0.80;;;;;;;6.93;63.61;99803.97;113879;1196;25062;-78
2021/10/22 04:06:56;;;;;;;5.50;0.70;;;;;;;6.90;63.69;99808.02;113760;1196;22480;-79
2021/10/22 04:09:26;;;;;;;7.60;0.80;;;;;;;6.87;63.74;99811.56;113869;1196;22447;-79
2021/10/22 04:11:54;;;;;;;7.30;0.60;;;;;;;6.85;63.72;99817.52;114070;1196;24272;-79
2021/10/22 04:14:22;;;;;;;8.40;0.50;;;;;;;6.82;63.77;99820.02;114065;1196;25054;-78
2021/10/22 04:16:50;;;;;;;13.10;1.20;;;;;;;6.79;63.81;99827.92;114017;1196;22598;-78
2021/10/22 04:19:19;;;;;;;11.10;0.60;;;;;;;6.75;63.88;99826.02;114058;1196;24159;-78
2021/10/22 04:21:48;;;;;;;6.10;0.50;;;;;;;6.72;63.90;99823.77;114040;1196;22431;-79
2021/10/22 04:24:18;;;;;;;11.80;0.80;;;;;;;6.70;63.96;99822.15;114185;1196;22419;-78
2021/10/22 04:26:46;;;;;;;13.20;1.00;;;;;;;6.67;63.94;99823.32;114366;1196;22456;-78
2021/10/22 04:29:14;;;;;;;7.20;0.70;;;;;;;6.63;63.98;99823.22;113877;1196;25135;-78
2021/10/22 04:31:42;;;;;;;7.10;0.50;;;;;;;6.61;64.09;99823.15;113895;1196;23293;-78
2021/10/22 04:34:10;;;;;;;6.20;0.70;;;;;;;6.59;64.02;99820.77;113831;1196;22844;-78
2021/10/22 04:36:39;;;;;;;10.20;0.80;;;;;;;6.56;64.16;99823.67;113925;1190;22428;-78
2021/10/22 04:42:06;;;;;;;4.40;0.30;;;;;;;6.49;64.18;99826.12;113736;1190;22441;-78
2021/10/22 04:44:34;;;;;;;7.50;0.60;;;;;;;6.46;64.34;99824.97;113562;1191;25169;-78
2021/10/22 04:47:02;;;;;;;7.20;0.70;;;;;;;6.44;64.30;99828.14;113638;1198;24092;-78
2021/10/22 04:49:30;;;;;;;6.30;0.70;;;;;;;6.42;64.40;99827.55;113522;1198;25183;-79
2021/10/22 04:51:58;;;;;;;5.40;0.60;;;;;;;6.40;64.42;99832.85;113490;1198;24087;-79
2021/10/22 04:54:27;;;;;;;9.50;0.80;;;;;;;6.38;64.51;99834.81;113588;1198;22511;-78
2021/10/22 04:56:54;;;;;;;9.30;0.90;;;;;;;6.37;64.53;99830.75;113595;1198;23328;-78
2021/10/22 04:59:23;;;;;;;7.90;0.70;;;;;;;6.36;64.55;99830.10;113491;1198;24308;-78
2021/10/22 05:01:50;;;;;;;14.70;0.70;;;;;;;6.35;64.62;99833.86;113587;1198;22472;-78
2021/10/22 05:04:19;;;;;;;11.30;1.40;;;;;;;6.33;64.62;99836.48;113674;1198;26035;-78
2021/10/22 05:06:46;;;;;;;10.90;0.50;;;;;;;6.32;64.68;99841.27;113655;1198;25114;-78
2021/10/22 05:09:14;;;;;;;12.10;1.00;;;;;;;6.30;64.63;99843.65;113549;1190;22499;-79
2021/10/22 05:11:42;;;;;;;6.40;0.60;;;;;;;6.29;64.72;99845.63;113618;1198;25449;-78
2021/10/22 05:14:10;;;;;;;12.60;0.80;;;;;;;6.26;64.76;99849.69;113586;1198;22890;-78
2021/10/22 05:16:38;;;;;;;10.00;0.70;;;;;;;6.25;64.79;99855.84;113966;1196;24131;-78
2021/10/22 05:19:05;;;;;;;6.70;0.80;;;;;;;6.22;64.90;99854.38;114125;1196;25189;-78
2021/10/22 05:21:33;;;;;;;11.60;0.80;;;;;;;6.20;64.92;99850.10;114161;1196;22436;-78
2021/10/22 05:24:01;;;;;;;8.40;0.60;;;;;;;6.19;64.98;99850.77;114128;1196;22429;-77
2021/10/22 05:26:30;;;;;;;11.20;0.80;;;;;;;6.17;64.95;99853.70;114013;1196;22439;-78
2021/10/22 05:28:57;;;;;;;8.00;0.90;;;;;;;6.15;65.03;99856.86;113900;1189;24157;-78
2021/10/22 05:31:25;;;;;;;12.40;0.90;;;;;;;6.13;65.04;99859.27;113887;1189;23734;-78
2021/10/22 05:33:53;;;;;;;11.70;1.40;;;;;;;6.11;65.14;99866.46;113823;1196;22517;-78
2021/10/22 05:36:23;;;;;;;9.10;0.90;;;;;;;6.08;65.26;99867.68;113806;1196;22682;-79
2021/10/22 05:38:52;;;;;;;9.70;1.40;;;;;;;6.07;65.24;99866.30;113840;1196;25178;-78
2021/10/22 05:41:20;;;;;;;11.90;0.80;;;;;;;6.05;65.36;99865.43;113791;1196;25697;-78
2021/10/22 05:43:49;;;;;;;8.80;1.10;;;;;;;6.04;65.39;99867.70;113912;1189;24086;-78
2021/10/22 05:46:18;;;;;;;11.40;0.60;;;;;;;6.02;65.34;99865.33;114057;1196;22421;-78
2021/10/22 05:48:46;;;;;;;7.50;0.90;;;;;;;6.01;65.41;99870.34;113802;1196;22474;-78
2021/10/22 05:51:15;;;;;;;9.20;0.60;;;;;;;6.00;65.45;99871.26;113778;1196;25106;-78
2021/10/22 05:53:43;;;;;;;16.40;1.50;;;;;;;5.98;65.57;99870.64;113833;1189;22464;-78
2021/10/22 05:56:11;;;;;;;10.50;0.90;;;;;;;5.96;65.59;99871.67;113886;1196;24211;-78
2021/10/22 05:58:39;;;;;;;8.90;1.10;;;;;;;5.92;65.67;99868.52;113844;1196;24162;-79
2021/10/22 06:01:08;;;;;;;13.50;1.30;;;;;;;5.88;65.74;99875.06;113876;1196;23791;-78
2021/10/22 06:03:36;;;;;;;8.20;1.10;;;;;;;5.86;65.73;99874.46;113828;1196;24120;-78
2021/10/22 06:06:04;;;;;;;12.20;0.80;;;;;;;5.86;65.76;99877.39;114005;1196;24081;-78
2021/10/22 06:08:33;;;;;;;13.60;1.10;;;;;;;5.86;65.79;99881.55;114082;1195;23749;-78
2021/10/22 06:11:02;;;;;;;11.30;1.20;;;;;;;5.87;65.69;99879.46;113958;1182;22503;-78
2021/10/22 06:13:31;;;;;;;9.60;0.80;;;;;;;5.87;65.77;99882.22;113867;1196;23239;-78
2021/10/22 06:15:58;;;;;;;15.50;0.90;;;;;;;5.88;65.79;99885.66;113841;1196;22465;-78
2021/10/22 06:18:26;;;;;;;11.20;0.70;;;;;;;5.89;65.82;99889.98;113740;1196;26338;-78
2021/10/22 06:20:57;;;;;;;10.70;1.10;;;;;;;5.89;65.77;99892.92;113895;1196;22894;-78
2021/10/22 06:26:12;;;;;;;9.80;0.70;;;;;;;5.93;65.86;99909.63;113761;1196;22552;-78
2021/10/22 06:28:40;;;;;;;11.30;0.90;;;;;;;5.94;65.77;99907.34;113877;1196;22494;-78
2021/10/22 06:31:09;;;;;;;6.70;0.70;;;;;;;5.97;65.68;99906.47;113922;1196;24162;-79
2021/10/22 06:33:36;;;;;;;10.00;0.80;;;;;;;5.99;65.75;99913.27;113801;1196;22436;-78
2021/10/22 06:36:05;;;;;;;9.70;0.90;;;;;;;6.00;65.80;99914.33;113831;1196;25412;-79
2021/10/22 06:38:33;;;;;;;12.20;0.80;;;;;;;6.03;65.79;99913.91;113849;1196;23648;-78
2021/10/22 06:41:03;;;;;;;9.40;1.00;;;;;;;6.05;65.66;99916.41;113806;1196;24092;-78
2021/10/22 06:43:31;;;;;;;11.10;0.90;;;;;;;6.08;65.61;99916.14;113995;1196;25140;-78
2021/10/22 06:45:59;;;;;;;16.30;1.00;;;;;;;6.12;65.68;99915.02;113783;1196;26453;-78
2021/10/22 06:48:27;;;;;;;9.10;0.90;;;;;;;6.17;65.60;99921.48;114239;1196;22489;-78
2021/10/22 06:50:57;;;;;;;9.20;0.90;;;;;;;6.22;65.54;99924.38;113756;1196;23181;-79
2021/10/22 06:53:26;;;;;;;11.90;0.90;;;;;;;6.26;65.41;99930.77;113927;1196;25051;-79
2021/10/22 06:55:54;;;;;;;9.00;0.90;;;;;;;6.31;65.49;99934.55;113736;1196;22435;-78
2021/10/22 06:58:22;;;;;;;14.70;1.90;;;;;;;6.36;65.36;99939.90;113747;1196;22435;-78
2021/10/22 07:00:51;;;;;;;12.60;1.20;;;;;;;6.40;65.20;99935.34;113849;1196;22429;-78
2021/10/22 07:03:23;;;;;;;12.80;1.50;;;;;;;6.45;65.24;99932.41;113903;1196;22538;-78
2021/10/22 07:08:46;;;;;;;14.10;1.80;;;;;;;6.54;65.31;99936.15;113768;1196;22539;-78
2021/10/22 07:11:17;;;;;;;13.50;1.10;;;;;;;6.57;65.17;99940.13;113916;1196;22435;-79
2021/10/22 07:13:50;;;;;;;9.00;1.20;;;;;;;6.61;65.12;99940.50;113828;1196;24507;-78
2021/10/22 07:16:19;;;;;;;14.10;1.50;;;;;;;6.64;65.08;99945.45;113817;1196;22497;-78
2021/10/22 07:18:49;;;;;;;11.60;1.70;;;;;;;6.68;65.11;99942.67;114135;1196;24795;-78
2021/10/22 07:21:18;;;;;;;7.40;0.90;;;;;;;6.72;65.01;99947.03;113893;1196;22462;-78
2021/10/22 07:23:49;;;;;;;8.70;1.10;;;;;;;6.74;64.83;99953.75;113929;1196;24057;-77
2021/10/22 07:26:19;;;;;;;12.50;1.10;;;;;;;6.78;64.91;99958.91;113802;1196;24189;-78
2021/10/22 07:28:48;;;;;;;9.50;1.00;;;;;;;6.82;64.78;99958.20;113817;1182;22438;-79
2021/10/22 07:31:17;;;;;;;8.30;0.90;;;;;;;6.86;64.78;99957.55;113864;1196;24030;-78
2021/10/22 07:33:47;;;;;;;11.60;1.10;;;;;;;6.91;64.74;99958.34;113792;1196;25125;-78
2021/10/22 07:36:17;;;;;;;8.40;1.10;;;;;;;6.96;64.66;99961.09;113846;1196;22437;-78
2021/10/22 07:38:45;;;;;;;12.40;1.00;;;;;;;7.01;64.52;99957.69;113839;1196;24155;-79
2021/10/22 07:41:14;;;;;;;10.70;0.90;;;;;;;7.08;64.51;99960.65;113800;1196;25024;-77
2021/10/22 07:43:42;;;;;;;7.00;0.80;;;;;;;7.14;64.16;99962.13;113801;1196;22522;-79
2021/10/22 07:46:12;;;;;;;10.10;0.90;;;;;;;7.22;63.78;99964.33;113853;1196;25023;-79
2021/10/22 07:48:42;;;;;;;7.50;1.00;;;;;;;7.31;63.76;99965.94;113840;1196;24062;-79
2021/10/22 07:51:11;;;;;;;7.70;0.70;;;;;;;7.42;63.37;99968.36;113821;1196;23005;-78
2021/10/22 07:53:39;;;;;;;10.30;1.20;;;;;;;7.52;63.34;99975.28;113942;1195;22554;-78
2021/10/22 07:56:08;;;;;;;9.30;0.90;;;;;;;7.62;62.95;99973.79;113974;1196;22441;-78
2021/10/22 07:58:36;;;;;;;8.40;0.70;;;;;;;7.72;62.71;99973.68;113783;1196;22454;-78
2021/10/22 08:01:04;;;;;;;9.60;0.70;;;;;;;7.81;62.44;99973.33;113881;1196;22599;-79
2021/10/22 08:03:33;;;;;;;14.00;1.20;;;;;;;7.90;62.12;99972.59;113793;1196;22601;-79
2021/10/22 08:06:02;;;;;;;9.80;0.80;;;;;;;7.98;62.02;99972.09;113872;1196;25154;-79
2021/10/22 08:08:30;;;;;;;13.80;1.70;;;;;;;8.06;62.05;99966.67;114028;1196;25148;-79
2021/10/22 08:10:58;;;;;;;9.70;0.90;;;;;;;8.16;61.70;99968.18;113810;1196;22412;-79
2021/10/22 08:13:27;;;;;;;10.20;0.90;;;;;;;8.26;61.47;99970.79;114022;1196;22758;-79
2021/10/22 08:15:56;;;;;;;11.60;1.20;;;;;;;8.32;61.53;99967.01;114178;1196;22442;-79
2021/10/22 08:18:24;;;;;;;9.60;1.20;;;;;;;8.36;61.43;99965.04;114242;1196;24708;-80
2021/10/22 08:20:55;;;;;;;4.70;0.50;;;;;;;8.37;60.72;99966.19;114138;1190;22883;-79
2021/10/22 08:23:23;;;;;;;9.70;0.70;;;;;;;8.36;60.75;99965.20;114232;1196;22440;-79
2021/10/22 08:25:52;;;;;;;7.20;0.70;;;;;;;8.34;60.57;99967.36;114197;1196;22445;-80
2021/10/22 08:28:21;;;;;;;11.00;1.20;;;;;;;8.32;60.38;99972.33;114197;1174;22731;-80
2021/10/22 08:30:55;;;;;;;7.70;1.00;;;;;;;8.29;60.49;99974.91;114243;1196;22430;-79
2021/10/22 08:33:24;;;;;;;6.70;0.70;;;;;;;8.28;60.16;99980.44;114049;1196;24160;-79
2021/10/22 08:35:52;;;;;;;9.40;0.70;;;;;;;8.28;60.08;99975.27;113924;1196;22459;-79
2021/10/22 08:38:20;;;;;;;9.30;0.70;;;;;;;8.30;60.28;99976.08;113924;1196;22454;-78
2021/10/22 08:40:48;;;;;;;9.10;0.90;;;;;;;8.34;60.57;99973.03;113952;1196;25414;-79
2021/10/22 08:43:16;;;;;;;5.70;0.60;;;;;;;8.39;60.48;99971.55;113899;1196;23166;-79
2021/10/22 08:45:45;;;;;;;10.00;1.00;;;;;;;8.45;59.80;99968.39;113920;1196;23113;-79
2021/10/22 08:48:13;;;;;;;10.60;1.20;;;;;;;8.51;60.04;99970.34;113921;1193;23294;-78
2021/10/22 08:50:41;;;;;;;11.60;1.10;;;;;;;8.58;59.88;99969.11;113903;1196;22631;-79
2021/10/22 08:53:09;;;;;;;9.40;1.00;;;;;;;8.64;59.54;99962.48;113908;1196;22426;-79
2021/10/22 08:55:38;;;;;;;8.50;0.70;;;;;;;8.68;59.33;99961.52;113883;1196;22417;-79
2021/10/22 08:58:06;;;;;;;11.70;1.00;;;;;;;8.72;59.38;99963.43;113998;1196;22440;-80
2021/10/22 09:00:35;;;;;;;8.00;0.70;;;;;;;8.74;59.05;99960.08;114234;1196;22418;-80
2021/10/22 09:03:11;;;;;;;8.80;0.70;;;;;;;8.78;58.40;99958.20;114177;1196;22429;-80
2021/10/22 09:05:55;;;;;;;4.50;0.80;;;;;;;8.83;58.74;99956.09;114340;1196;23371;-80
2021/10/22 09:08:32;;;;;;;8.30;0.80;;;;;;;8.91;58.41;99945.77;114335;1196;22448;-80
2021/10/22 09:11:00;;;;;;;6.10;0.60;;;;;;;8.98;58.08;99942.11;114250;1196;24413;-78
2021/10/22 09:13:31;;;;;;;8.30;0.70;;;;;;;9.03;57.99;99943.09;113944;1196;25096;-79
2021/10/22 09:16:00;;;;;;;10.20;0.60;;;;;;;9.10;57.80;99946.09;113907;1196;22416;-79
2021/10/22 09:18:29;;;;;;;7.10;0.70;;;;;;;9.17;57.26;99947.52;113925;1196;23136;-79
2021/10/22 09:20:59;;;;;;;8.00;0.80;;;;;;;9.23;57.23;99945.45;113939;1196;25151;-79
2021/10/22 09:23:30;;;;;;;6.40;0.70;;;;;;;9.28;57.29;99937.71;113983;1196;25112;-79
2021/10/22 09:26:16;;;;;;;6.60;0.60;;;;;;;9.36;56.85;99936.93;113920;1196;27448;-79
2021/10/22 09:28:45;;;;;;;5.40;0.70;;;;;;;9.41;56.39;99931.81;113961;1196;22429;-80
2021/10/22 09:31:16;;;;;;;6.50;0.70;;;;;;;9.46;56.08;99930.71;114245;1194;22452;-80
2021/10/22 09:33:52;;;;;;;6.00;0.50;;;;;;;9.53;56.08;99926.30;114370;1196;22435;-80
2021/10/22 09:36:35;;;;;;;7.20;0.60;;;;;;;9.60;56.08;99929.84;114267;1196;22502;-80
2021/10/22 09:39:08;;;;;;;6.50;0.60;;;;;;;9.68;55.35;99932.73;114283;1196;24181;-80
2021/10/22 09:41:37;;;;;;;6.90;0.70;;;;;;;9.73;55.01;99928.84;114289;1196;22439;-80
2021/10/22 09:44:23;;;;;;;4.20;0.40;;;;;;;9.77;54.56;99924.98;114617;1196;22426;-80
2021/10/22 09:46:52;;;;;;;8.30;0.60;;;;;;;9.85;55.05;99922.31;114287;1196;22552;-80
2021/10/22 09:49:28;;;;;;;6.80;0.70;;;;;;;9.92;54.31;99925.92;114220;1196;25105;-79
2021/10/22 09:51:56;;;;;;;3.00;0.50;;;;;;;9.98;54.08;99917.86;114445;1196;22462;-80
2021/10/22 09:54:30;;;;;;;8.50;0.70;;;;;;;10.03;54.03;99913.64;114396;1196;25005;-80
2021/10/22 09:57:05;;;;;;;8.90;0.60;;;;;;;10.12;54.29;99908.86;114233;1196;22442;-80
2021/10/22 09:59:34;;;;;;;5.60;0.40;;;;;;;10.23;53.07;99904.89;114339;1196;22453;-80
2021/10/22 10:02:03;;;;;;;4.50;0.50;;;;;;;10.32;53.07;99896.56;114794;1196;22398;-80
2021/10/22 10:04:33;;;;;;;8.30;0.40;;;;;;;10.44;52.32;99901.23;114739;1196;22544;-80
2021/10/22 10:07:02;;;;;;;8.60;0.50;;;;;;;10.50;52.12;99893.92;114853;1196;22412;-80
2021/10/22 10:09:31;;;;;;;5.00;0.30;;;;;;;10.54;51.77;99892.71;114891;1196;22468;-81
2021/10/22 10:12:01;;;;;;;6.60;0.50;;;;;;;10.60;51.15;99893.59;114903;1196;22385;-80
2021/10/22 10:14:29;;;;;;;10.50;0.80;;;;;;;10.65;50.66;99886.04;114767;1196;22553;-81
2021/10/22 10:16:59;;;;;;;6.80;0.40;;;;;;;10.69;51.32;99889.18;114789;1196;22526;-80
2021/10/22 10:19:32;;;;;;;6.60;0.50;;;;;;;10.73;50.90;99882.70;114937;1196;22538;-80
2021/10/22 10:22:02;;;;;;;9.00;0.60;;;;;;;10.81;51.63;99886.86;114937;1190;22693;-80
2021/10/22 10:24:34;;;;;;;7.80;0.70;;;;;;;10.91;51.84;99890.70;114774;1196;22467;-80
2021/10/22 10:27:07;;;;;;;6.40;0.60;;;;;;;11.02;51.72;99888.38;114638;1196;22474;-81
2021/10/22 10:29:41;;;;;;;8.10;0.60;;;;;;;11.07;51.04;99888.13;114676;1180;26133;-80
2021/10/22 10:32:13;;;;;;;8.20;0.70;;;;;;;11.08;50.80;99880.92;114693;1181;22467;-81
2021/10/22 10:34:44;;;;;;;7.40;0.60;;;;;;;11.09;50.84;99877.80;114650;1196;25145;-80
2021/10/22 10:37:28;;;;;;;9.00;0.70;;;;;;;11.13;51.01;99876.62;114659;1196;25067;-81
2021/10/22 10:40:06;;;;;;;12.10;0.60;;;;;;;11.17;50.87;99871.73;114682;1196;24075;-80
2021/10/22 10:42:38;;;;;;;7.50;0.70;;;;;;;11.22;50.60;99876.05;114766;1196;22464;-81
2021/10/22 10:45:09;;;;;;;7.40;0.90;;;;;;;11.24;50.54;99872.00;114717;1196;24125;-80
2021/10/22 10:50:26;;;;;;;7.10;0.70;;;;;;;11.29;50.20;99865.56;113184;1192;25032;-57
2021/10/22 10:52:57;;;;;;;7.60;0.70;;;;;;;11.29;50.58;99862.66;113192;1192;24039;-57
2021/10/22 10:55:29;;;;;;;7.50;0.90;;;;;;;11.34;50.29;99860.27;113057;1192;22416;-56
2021/10/22 10:58:12;;;;;;;8.70;0.80;;;;;;;11.39;50.49;99860.53;112987;1192;22429;-56
2021/10/22 11:00:43;;;;;;;4.60;0.90;;;;;;;11.49;50.39;99863.25;113181;1199;24170;-56
2021/10/22 11:03:15;;;;;;;;;;;;;;;11.58;50.45;99853.44;113244;1199;22430;-56
2021/10/22 11:06:13;;;;;;;4.60;0.60;;;;;;;11.63;50.14;99853.98;113256;1199;24992;-55
2021/10/22 11:08:50;;;;;;;6.50;0.80;;;;;;;11.61;49.85;99862.20;113205;1200;22543;-56
2021/10/22 11:11:41;;;;;;;8.30;0.70;;;;;;;11.62;49.47;99861.24;113045;1199;22437;-57
2021/10/22 11:14:28;;;;;;;10.40;0.80;;;;;;;11.61;49.27;99859.55;113113;1199;25098;-56
2021/10/22 11:16:59;;;;;;;7.80;0.80;;;;;;;11.56;49.15;99853.05;113092;1192;24060;-56
2021/10/22 11:19:39;;;;;;;5.50;0.60;;;;;;;11.54;49.32;99848.86;113106;1198;25149;-54
2021/10/22 11:22:13;;;;;;;4.70;0.50;;;;;;;11.59;49.26;99848.04;113214;1199;22896;-56
2021/10/22 11:24:43;;;;;;;4.50;0.70;;;;;;;11.66;49.39;99854.59;113164;1199;25329;-52
2021/10/22 11:27:15;;;;;;;8.00;0.50;;;;;;;11.66;48.41;99858.29;113151;1192;22583;-57
2021/10/22 11:29:45;;;;;;;7.60;0.90;;;;;;;11.56;48.20;99854.53;113256;1199;22555;-58
2021/10/22 11:32:14;;;;;;;;;;;;;;;11.47;48.99;99838.04;113137;1199;22398;-55
2021/10/22 11:34:46;;;;;;;6.10;0.70;;;;;;;11.42;48.42;99838.23;113134;1192;22445;-58
2021/10/22 11:37:16;;;;;;;5.80;0.40;;;;;;;11.38;48.44;99838.30;113183;1199;22434;-59
2021/10/22 11:39:47;;;;;;;8.20;0.50;;;;;;;11.43;48.20;99833.52;113292;1199;24056;-56
2021/10/22 11:42:26;;;;;;;6.60;0.90;;;;;;;11.51;48.35;99831.66;113161;1198;25303;-58
2021/10/22 11:44:58;;;;;;;4.10;0.50;;;;;;;11.58;47.56;99841.73;113253;1199;22466;-59
2021/10/22 11:47:36;;;;;;;8.90;0.70;;;;;;;11.53;47.87;99840.77;113163;1199;24137;-56
2021/10/22 11:50:20;;;;;;;9.50;0.70;;;;;;;11.45;47.99;99840.95;112963;1192;22432;-57
2021/10/22 11:52:49;;;;;;;6.00;0.60;;;;;;;11.37;48.11;99835.66;113132;1199;22438;-59
2021/10/22 11:55:21;;;;;;;3.20;0.40;;;;;;;11.34;48.38;99836.79;113232;1199;24062;-57